Time;durP1;ratioP1;P1;durP2;ratioP2;P2;SDS_P1;SDS_P2;PMS_P1;PMS_P2;Temp;Humidity;BMP_temperature;BMP_pressure;BME280_temperature;BME280_humidity;BME280_pressure;Samples;Min_cycle;Max_cycle;Signal;HPM_P1;HPM_P2
2022/08/25 00:00:05;;;;;;;115.13;107.83;;;;;;;20.04;100.00;101733.54;1946678;74;24564;-74
2022/08/25 00:02:36;;;;;;;116.80;109.50;;;;;;;20.24;100.00;101733.49;1946696;73;24191;-73
2022/08/25 00:05:08;;;;;;;114.10;107.10;;;;;;;20.20;100.00;101724.86;1946698;73;24113;-73
2022/08/25 00:10:39;;;;;;;117.73;110.63;;;;;;;20.07;100.00;101713.12;2050947;69;25931;-74
2022/08/25 00:13:10;;;;;;;113.20;106.10;;;;;;;20.05;100.00;101728.73;1972498;73;24158;-74
2022/08/25 00:15:40;;;;;;;116.13;108.93;;;;;;;20.03;100.00;101729.63;1985572;70;24202;-73
2022/08/25 00:18:11;;;;;;;116.67;109.17;;;;;;;20.20;100.00;101723.45;2005337;70;24225;-73
2022/08/25 00:20:41;;;;;;;117.13;109.87;;;;;;;20.22;100.00;101725.37;2012152;71;24562;-74
2022/08/25 00:23:12;;;;;;;115.70;108.50;;;;;;;20.47;100.00;101718.70;2007303;69;24181;-73
2022/08/25 00:25:42;;;;;;;111.17;104.17;;;;;;;20.53;100.00;101716.81;1993238;69;24613;-73
2022/08/25 00:28:15;;;;;;;114.67;107.35;;;;;;;20.52;100.00;101713.73;1993276;70;24136;-73
2022/08/25 00:30:45;;;;;;;116.57;109.07;;;;;;;20.57;100.00;101711.34;2007615;70;24241;-73
2022/08/25 00:33:16;;;;;;;117.62;110.37;;;;;;;20.60;100.00;101707.26;1996029;70;24590;-73
2022/08/25 00:35:47;;;;;;;111.87;104.67;;;;;;;20.53;100.00;101707.52;1993577;70;24139;-73
2022/08/25 00:38:17;;;;;;;112.05;104.83;;;;;;;20.58;100.00;101706.75;1995613;70;24139;-73
2022/08/25 00:41:04;;;;;;;115.60;108.27;;;;;;;20.54;100.00;101704.95;1999662;70;24131;-73
2022/08/25 00:43:22;;;;;;;120.13;112.60;;;;;;;20.71;100.00;101702.92;1996898;70;24209;-73
2022/08/25 00:45:53;;;;;;;121.45;113.95;;;;;;;20.70;100.00;101706.11;2001623;69;24243;-73
2022/08/25 00:48:23;;;;;;;119.17;111.77;;;;;;;20.79;100.00;101704.91;2007788;69;24208;-73
2022/08/25 00:50:53;;;;;;;123.15;115.55;;;;;;;20.69;100.00;101717.14;1981808;71;24200;-73
2022/08/25 00:56:23;;;;;;;127.87;120.07;;;;;;;20.62;100.00;101697.89;2060157;69;25480;-73
2022/08/25 00:58:54;;;;;;;118.60;111.20;;;;;;;20.70;100.00;101711.17;1981852;72;24182;-74
2022/08/25 01:01:26;;;;;;;122.77;115.27;;;;;;;20.69;100.00;101723.62;1981723;72;24102;-74
2022/08/25 01:03:56;;;;;;;129.07;121.07;;;;;;;20.60;100.00;101724.20;1981927;72;24595;-74
2022/08/25 01:06:28;;;;;;;123.45;115.55;;;;;;;20.49;100.00;101728.52;1981692;72;24132;-74
2022/08/25 01:08:59;;;;;;;127.35;119.47;;;;;;;20.62;100.00;101719.06;1981778;72;24109;-73
2022/08/25 01:11:30;;;;;;;127.30;119.50;;;;;;;20.73;100.00;101720.38;1981711;72;24253;-74
2022/08/25 01:14:05;;;;;;;127.92;120.00;;;;;;;20.75;100.00;101718.65;1981656;72;24101;-74
2022/08/25 01:16:35;;;;;;;131.45;123.58;;;;;;;20.76;100.00;101709.83;1981490;71;24171;-74
2022/08/25 01:19:07;;;;;;;125.50;117.80;;;;;;;20.88;100.00;101704.91;1981743;72;24109;-73
2022/08/25 01:21:42;;;;;;;119.15;111.60;;;;;;;20.88;100.00;101709.14;1981809;72;24563;-74
2022/08/25 01:24:16;;;;;;;122.00;114.50;;;;;;;20.90;100.00;101701.17;1981714;72;24113;-73
2022/08/25 01:26:47;;;;;;;120.10;112.60;;;;;;;20.75;100.00;101696.86;1981303;72;24223;-74
2022/08/25 01:29:24;;;;;;;125.78;118.05;;;;;;;20.82;100.00;101698.63;1981719;72;24640;-74
2022/08/25 01:31:58;;;;;;;124.80;117.30;;;;;;;20.82;100.00;101699.20;1981723;72;26635;-74
2022/08/25 01:34:32;;;;;;;123.75;116.25;;;;;;;20.84;100.00;101693.45;1981827;72;24121;-74
2022/08/25 01:37:04;;;;;;;120.60;113.15;;;;;;;20.83;100.00;101692.39;1981832;72;24597;-74
2022/08/25 01:39:35;;;;;;;120.80;113.33;;;;;;;20.82;100.00;101690.73;1981812;72;24191;-73
2022/08/25 01:42:20;;;;;;;122.58;115.17;;;;;;;20.79;100.00;101699.27;1981759;72;24140;-74
2022/08/25 01:44:50;;;;;;;124.27;116.63;;;;;;;20.78;100.00;101691.14;1981724;72;24114;-74
2022/08/25 01:47:21;;;;;;;125.70;118.08;;;;;;;20.78;100.00;101693.39;1981676;72;24202;-74
2022/08/25 01:49:51;;;;;;;118.82;111.40;;;;;;;20.82;100.00;101697.78;1980883;72;24135;-74
2022/08/25 01:52:25;;;;;;;122.37;114.87;;;;;;;20.83;100.00;101693.80;1979731;72;24114;-74
2022/08/25 01:54:56;;;;;;;119.93;112.53;;;;;;;20.84;100.00;101699.10;1979508;72;24640;-74
2022/08/25 02:00:24;;;;;;;125.53;117.93;;;;;;;20.87;100.00;101692.80;2060046;69;25931;-73
2022/08/25 02:02:55;;;;;;;124.83;117.10;;;;;;;20.69;100.00;101703.03;1981933;72;24097;-74
2022/08/25 02:05:25;;;;;;;122.20;114.57;;;;;;;20.65;100.00;101697.80;1981714;72;24110;-74
2022/08/25 02:07:56;;;;;;;123.10;115.57;;;;;;;20.74;100.00;101697.22;1981886;72;24109;-74
2022/08/25 02:10:27;;;;;;;120.33;112.72;;;;;;;20.78;100.00;101688.33;1981727;72;24637;-74
2022/08/25 02:12:58;;;;;;;125.45;117.77;;;;;;;20.79;100.00;101680.91;1981812;72;24594;-74
2022/08/25 02:15:28;;;;;;;121.83;114.30;;;;;;;20.80;100.00;101678.34;1981621;72;24113;-74
2022/08/25 02:17:59;;;;;;;119.37;111.88;;;;;;;20.81;100.00;101686.23;1981754;72;24097;-74
2022/08/25 02:20:29;;;;;;;121.95;114.45;;;;;;;20.81;100.00;101685.66;1981702;72;24551;-74
2022/08/25 02:23:00;;;;;;;125.13;117.53;;;;;;;20.82;100.00;101690.14;1981707;72;24643;-74
2022/08/25 02:25:30;;;;;;;122.00;114.42;;;;;;;20.80;100.00;101693.03;1981699;72;24106;-74
2022/08/25 02:28:01;;;;;;;122.10;114.50;;;;;;;20.79;100.00;101687.97;1981897;72;24222;-74
2022/08/25 02:30:32;;;;;;;121.20;113.63;;;;;;;20.77;100.00;101686.08;1981703;72;24213;-74
2022/08/25 02:33:02;;;;;;;117.82;110.45;;;;;;;20.81;100.00;101680.58;1981692;72;24617;-74
2022/08/25 02:35:33;;;;;;;121.37;113.87;;;;;;;20.84;100.00;101675.67;1981784;72;24113;-74
2022/08/25 02:38:04;;;;;;;123.85;116.30;;;;;;;20.79;100.00;101678.09;1981790;72;24552;-74
2022/08/25 02:40:35;;;;;;;122.37;114.77;;;;;;;20.77;100.00;101677.61;1981753;72;24176;-74
2022/08/25 02:43:06;;;;;;;121.50;113.92;;;;;;;20.74;100.00;101677.45;1981900;72;24575;-74
2022/08/25 02:45:37;;;;;;;125.30;117.70;;;;;;;20.78;100.00;101676.45;1981792;72;24083;-74
2022/08/25 02:48:07;;;;;;;126.25;118.55;;;;;;;20.75;100.00;101670.03;1981789;72;24102;-73
2022/08/25 02:50:37;;;;;;;126.20;118.37;;;;;;;20.75;100.00;101667.82;1980127;72;24194;-74
2022/08/25 02:53:08;;;;;;;121.77;114.67;;;;;;;20.69;100.00;101667.73;1979649;72;24202;-74
2022/08/25 02:55:39;;;;;;;119.35;112.57;;;;;;;20.65;100.00;101667.58;1979779;72;24220;-74
2022/08/25 02:58:09;;;;;;;128.77;121.47;;;;;;;20.62;100.00;101666.84;1979765;72;24603;-74
2022/08/25 03:00:40;;;;;;;121.10;114.23;;;;;;;20.61;100.00;101671.39;1979790;72;24155;-73
2022/08/25 03:06:11;;;;;;;118.63;111.60;;;;;;;20.55;100.00;101651.55;2060045;69;25918;-73
2022/08/25 03:08:42;;;;;;;124.10;116.80;;;;;;;20.53;100.00;101664.59;1982049;72;24239;-72
2022/08/25 03:11:13;;;;;;;121.15;114.15;;;;;;;20.49;100.00;101652.89;1981702;72;24118;-73
2022/08/25 03:13:43;;;;;;;119.22;112.22;;;;;;;20.50;100.00;101653.95;1981804;72;24094;-73
2022/08/25 03:16:14;;;;;;;123.00;115.80;;;;;;;20.55;100.00;101649.55;1981714;72;24158;-73
2022/08/25 03:18:45;;;;;;;119.57;112.57;;;;;;;20.57;100.00;101647.82;1981812;72;24166;-73
2022/08/25 03:21:16;;;;;;;119.95;112.85;;;;;;;20.59;100.00;101652.53;1981827;72;24179;-73
2022/08/25 03:23:47;;;;;;;116.27;109.20;;;;;;;20.60;100.00;101659.27;1981660;72;24117;-73
2022/08/25 03:29:06;;;;;;;113.40;106.52;;;;;;;20.52;100.00;101636.11;1982014;72;24247;-73
2022/08/25 03:31:37;;;;;;;114.20;107.20;;;;;;;20.53;100.00;101634.95;1981687;72;24101;-73
2022/08/25 03:34:08;;;;;;;121.07;113.87;;;;;;;20.55;100.00;101634.61;1981685;72;24120;-73
2022/08/25 03:36:39;;;;;;;118.55;111.35;;;;;;;20.53;100.00;101629.31;1981689;72;24105;-73
2022/08/25 03:39:10;;;;;;;121.93;114.80;;;;;;;20.39;100.00;101620.18;1981791;72;24102;-73
2022/08/25 03:41:40;;;;;;;120.10;112.83;;;;;;;20.22;100.00;101618.16;1981739;72;24167;-73
2022/08/25 03:44:11;;;;;;;118.97;111.77;;;;;;;20.30;100.00;101617.94;1981679;72;24660;-68
2022/08/25 03:46:44;;;;;;;118.50;111.17;;;;;;;20.39;100.00;101619.61;1981869;72;24164;-68
2022/08/25 03:52:30;;;;;;;120.75;113.35;;;;;;;20.51;100.00;101613.86;1997110;71;30934;-68
2022/08/25 03:57:58;;;;;;;120.83;113.17;;;;;;;20.57;100.00;101649.23;2060377;69;25346;-68
2022/08/25 04:00:30;;;;;;;112.47;105.07;;;;;;;20.51;100.00;101668.90;1949411;72;943142;-68
2022/08/25 04:06:01;;;;;;;109.92;102.53;;;;;;;20.31;100.00;101668.41;2061181;69;25913;-68
2022/08/25 04:08:32;;;;;;;118.37;110.68;;;;;;;20.11;100.00;101671.02;1938384;73;24614;-68
2022/08/25 04:11:06;;;;;;;117.80;110.00;;;;;;;20.07;100.00;101669.41;2016776;71;24114;-68
2022/08/25 04:13:37;;;;;;;118.85;110.95;;;;;;;20.04;100.00;101660.20;2016783;71;24690;-68
2022/08/25 04:16:13;;;;;;;109.75;102.22;;;;;;;19.91;100.00;101668.22;2016873;71;24118;-68
2022/08/25 04:18:43;;;;;;;108.00;100.30;;;;;;;19.85;100.00;101666.12;2016783;71;24603;-68
2022/08/25 04:21:14;;;;;;;120.85;112.62;;;;;;;19.83;100.00;101658.59;2016911;71;24134;-68
2022/08/25 04:23:46;;;;;;;121.93;113.43;;;;;;;19.92;100.00;101660.02;2016936;71;24132;-68
2022/08/25 04:26:20;;;;;;;119.23;110.73;;;;;;;19.99;100.00;101658.38;2016827;71;24122;-68
2022/08/25 04:28:51;;;;;;;117.60;109.03;;;;;;;20.09;100.00;101662.04;2017011;71;24130;-68
2022/08/25 04:31:23;;;;;;;120.77;112.00;;;;;;;20.05;100.00;101666.68;2016797;71;24250;-68
2022/08/25 04:33:54;;;;;;;114.37;106.07;;;;;;;19.99;100.00;101660.36;2016766;71;24557;-69
2022/08/25 04:36:25;;;;;;;123.63;114.93;;;;;;;19.84;100.00;101658.85;2016835;71;24130;-69
2022/08/25 04:38:55;;;;;;;125.53;116.63;;;;;;;19.91;100.00;101654.13;2016889;71;24589;-69
2022/08/25 04:41:27;;;;;;;124.53;115.83;;;;;;;19.86;100.00;101662.16;2016764;71;26668;-69
2022/08/25 04:43:59;;;;;;;125.40;116.25;;;;;;;19.79;100.00;101668.03;2016942;71;24580;-69
2022/08/25 04:49:46;;;;;;;116.37;107.40;;;;;;;19.99;100.00;101675.87;2008376;70;30902;-69
2022/08/25 04:55:15;;;;;;;121.43;111.87;;;;;;;19.77;100.00;101689.49;2061168;69;25959;-69
2022/08/25 04:57:45;;;;;;;129.70;119.53;;;;;;;19.80;100.00;101703.53;1938610;73;24097;-69
2022/08/25 05:00:18;;;;;;;122.77;112.93;;;;;;;19.84;100.00;101699.73;2016796;71;24199;-69
2022/08/25 05:02:49;;;;;;;131.37;121.47;;;;;;;19.79;100.00;101701.87;2016880;71;24138;-69
2022/08/25 05:05:19;;;;;;;128.33;118.13;;;;;;;19.76;100.00;101703.94;2016835;71;24138;-69
2022/08/25 05:07:50;;;;;;;137.90;127.20;;;;;;;19.88;100.00;101709.78;2016918;71;24125;-69
2022/08/25 05:10:20;;;;;;;136.30;126.00;;;;;;;19.71;100.00;101717.60;2017078;71;24564;-69
2022/08/25 05:12:51;;;;;;;141.87;130.53;;;;;;;19.78;100.00;101712.31;2016769;71;24183;-69
2022/08/25 05:18:10;;;;;;;140.00;129.17;;;;;;;19.54;100.00;101726.81;2016801;71;24215;-69
2022/08/25 05:20:41;;;;;;;158.37;145.23;;;;;;;19.45;100.00;101739.20;2016802;71;24139;-69
2022/08/25 05:23:11;;;;;;;151.17;138.30;;;;;;;19.47;100.00;101750.38;2016806;71;24118;-69
2022/08/25 05:25:43;;;;;;;141.33;129.93;;;;;;;19.45;100.00;101758.34;2016817;71;24133;-69
2022/08/25 05:28:14;;;;;;;154.10;140.47;;;;;;;19.48;100.00;101767.55;2016821;71;24203;-69
2022/08/25 05:30:45;;;;;;;154.60;141.40;;;;;;;19.54;100.00;101768.26;2016754;71;24649;-69
2022/08/25 05:33:17;;;;;;;152.47;139.40;;;;;;;19.49;100.00;101763.59;2016851;71;24141;-69
2022/08/25 05:35:47;;;;;;;150.53;136.93;;;;;;;19.57;100.00;101762.54;2016805;71;24204;-69
2022/08/25 05:38:18;;;;;;;139.30;127.00;;;;;;;19.41;100.00;101763.51;2016870;71;24185;-70
2022/08/25 05:40:50;;;;;;;137.37;125.97;;;;;;;19.42;100.00;101762.36;2016760;71;24136;-70
2022/08/25 05:43:21;;;;;;;146.27;134.27;;;;;;;19.40;100.00;101768.87;1938291;74;24589;-70
2022/08/25 05:45:53;;;;;;;148.17;134.37;;;;;;;19.44;100.00;101769.36;1938196;74;24194;-70
2022/08/25 05:48:24;;;;;;;140.37;128.73;;;;;;;19.29;100.00;101761.86;2016711;71;24133;-69
2022/08/25 05:50:56;;;;;;;146.17;134.57;;;;;;;19.36;100.00;101746.73;1986119;71;24277;-69
2022/08/25 05:53:29;;;;;;;141.73;130.23;;;;;;;19.35;100.00;101745.06;1980463;72;24407;-69
2022/08/25 05:58:59;;;;;;;138.47;126.83;;;;;;;19.10;100.00;101727.69;2060285;69;25920;-69
2022/08/25 06:04:21;;;;;;;133.37;121.23;;;;;;;19.11;100.00;101722.89;1981906;72;24108;-68
2022/08/25 06:06:53;;;;;;;144.47;132.67;;;;;;;19.09;100.00;101728.00;1982113;72;24191;-70
2022/08/25 06:09:25;;;;;;;140.77;128.93;;;;;;;19.31;100.00;101722.91;1981719;72;24109;-68
2022/08/25 06:11:55;;;;;;;143.37;131.50;;;;;;;19.30;100.00;101722.08;1981684;72;24194;-69
2022/08/25 06:14:26;;;;;;;138.83;127.40;;;;;;;19.25;100.00;101715.77;1981738;72;24105;-67
2022/08/25 06:16:59;;;;;;;140.00;128.57;;;;;;;19.20;100.00;101710.27;1981702;72;26633;-66
2022/08/25 06:19:30;;;;;;;123.87;113.13;;;;;;;19.24;100.00;101698.61;1981885;72;24097;-66
2022/08/25 06:22:01;;;;;;;156.00;143.87;;;;;;;19.23;100.00;101694.13;1981899;72;24110;-66
2022/08/25 06:24:32;;;;;;;142.77;131.00;;;;;;;19.17;100.00;101690.60;1981802;72;24543;-67
2022/08/25 06:27:03;;;;;;;139.63;128.47;;;;;;;19.21;100.00;101693.63;1981777;72;24141;-66
2022/08/25 06:29:34;;;;;;;139.20;127.43;;;;;;;19.30;100.00;101702.36;1981771;72;24109;-68
2022/08/25 06:32:05;;;;;;;139.03;127.77;;;;;;;19.17;100.00;101714.55;1981840;72;24563;-67
2022/08/25 06:34:35;;;;;;;151.73;139.13;;;;;;;19.01;100.00;101717.52;1981677;72;24620;-66
2022/08/25 06:37:06;;;;;;;147.97;136.03;;;;;;;19.26;100.00;101728.11;1981735;72;24647;-67
2022/08/25 06:39:37;;;;;;;148.57;136.37;;;;;;;19.15;100.00;101736.58;1981804;72;24187;-67
2022/08/25 06:42:09;;;;;;;144.53;132.60;;;;;;;19.08;100.00;101740.44;1981814;72;24625;-70
2022/08/25 06:44:39;;;;;;;138.27;126.73;;;;;;;19.04;100.00;101748.67;1981712;72;24106;-67
2022/08/25 06:47:10;;;;;;;147.03;135.17;;;;;;;19.05;100.00;101757.39;1981834;72;24175;-67
2022/08/25 06:52:56;;;;;;;150.10;138.20;;;;;;;19.05;100.00;101763.02;2013339;71;30980;-67
2022/08/25 06:58:25;;;;;;;158.80;146.57;;;;;;;19.10;100.00;101763.47;2060011;69;25744;-67
2022/08/25 07:00:56;;;;;;;151.50;138.93;;;;;;;19.12;100.00;101769.63;1981821;72;24097;-67
2022/08/25 07:03:27;;;;;;;161.27;148.07;;;;;;;19.29;100.00;101773.97;1981909;72;24179;-67
2022/08/25 07:05:58;;;;;;;169.67;156.20;;;;;;;19.27;100.00;101781.06;1981770;72;26922;-67
2022/08/25 07:08:28;;;;;;;145.60;133.13;;;;;;;19.29;100.00;101781.59;1981842;72;24144;-67
2022/08/25 07:11:01;;;;;;;154.13;141.03;;;;;;;19.15;100.00;101777.42;1981771;72;24121;-67
2022/08/25 07:13:32;;;;;;;155.00;142.40;;;;;;;19.20;100.00;101777.30;1981810;72;24618;-67
2022/08/25 07:16:04;;;;;;;158.70;145.60;;;;;;;19.16;100.00;101773.47;1981728;72;24113;-67
2022/08/25 07:18:36;;;;;;;155.43;143.03;;;;;;;19.21;100.00;101770.48;1981829;72;24548;-67
2022/08/25 07:21:07;;;;;;;167.03;153.87;;;;;;;19.25;100.00;101763.66;1981729;72;24117;-67
2022/08/25 07:23:38;;;;;;;160.83;147.90;;;;;;;19.14;100.00;101756.03;1981797;72;24230;-67
2022/08/25 07:26:12;;;;;;;163.93;150.70;;;;;;;19.18;100.00;101743.55;1981811;72;24545;-67
2022/08/25 07:28:44;;;;;;;157.87;145.40;;;;;;;19.27;100.00;101746.68;1981710;72;24178;-67
2022/08/25 07:31:15;;;;;;;167.63;154.33;;;;;;;19.22;100.00;101746.81;1981772;72;24117;-67
2022/08/25 07:36:36;;;;;;;167.23;153.67;;;;;;;19.19;100.00;101733.38;1981454;72;24118;-67
2022/08/25 07:39:07;;;;;;;160.97;147.97;;;;;;;19.08;100.00;101724.95;1981706;72;24552;-67
2022/08/25 07:41:40;;;;;;;157.37;145.37;;;;;;;19.13;100.00;101718.33;1981815;72;24117;-67
2022/08/25 07:44:13;;;;;;;157.83;145.83;;;;;;;19.24;100.00;101721.98;1981653;72;24617;-67
2022/08/25 07:46:44;;;;;;;157.70;145.93;;;;;;;19.14;100.00;101734.08;1981716;72;24105;-67
2022/08/25 07:49:15;;;;;;;180.63;167.10;;;;;;;19.22;100.00;101757.24;1976174;72;24216;-67
2022/08/25 07:51:46;;;;;;;158.23;145.97;;;;;;;19.17;100.00;101785.56;1911190;75;24685;-67
2022/08/25 07:54:17;;;;;;;147.10;134.87;;;;;;;19.23;100.00;101792.72;1894489;76;24206;-67
2022/08/25 07:59:46;;;;;;;159.57;147.23;;;;;;;19.22;100.00;101795.27;2060455;69;26187;-67
2022/08/25 08:02:18;;;;;;;149.00;136.90;;;;;;;19.08;100.00;101805.22;1981883;72;24531;-67
2022/08/25 08:04:50;;;;;;;149.50;136.90;;;;;;;19.20;100.00;101810.27;1981682;72;24155;-67
2022/08/25 08:07:23;;;;;;;140.67;128.43;;;;;;;19.21;100.00;101807.72;1981945;72;24129;-67
2022/08/25 08:09:54;;;;;;;152.67;139.77;;;;;;;19.17;100.00;101799.66;1981638;72;26606;-68
2022/08/25 08:12:26;;;;;;;147.73;135.63;;;;;;;19.22;100.00;101798.09;1981838;72;24121;-68
2022/08/25 08:14:58;;;;;;;153.93;141.30;;;;;;;19.23;100.00;101796.94;1981767;72;24117;-68
2022/08/25 08:17:30;;;;;;;146.77;134.83;;;;;;;19.14;100.00;101798.86;1981726;72;24112;-68
2022/08/25 08:20:05;;;;;;;144.33;132.50;;;;;;;19.07;100.00;101802.97;1981797;72;24106;-67
2022/08/25 08:22:36;;;;;;;155.00;142.93;;;;;;;19.17;100.00;101806.69;1944296;74;24145;-67
2022/08/25 08:25:10;;;;;;;142.27;130.67;;;;;;;19.15;100.00;101807.58;1935038;74;26627;-67
2022/08/25 08:27:44;;;;;;;151.47;139.57;;;;;;;19.30;100.00;101811.40;1897189;76;24159;-67
2022/08/25 08:30:16;;;;;;;158.17;146.10;;;;;;;19.23;100.00;101806.80;1967681;73;24177;-68
2022/08/25 08:32:48;;;;;;;160.43;148.03;;;;;;;19.17;100.00;101801.06;1967611;73;24122;-68
2022/08/25 08:35:19;;;;;;;157.27;145.10;;;;;;;19.13;100.00;101785.34;1967775;72;24118;-69
2022/08/25 08:37:50;;;;;;;155.67;143.47;;;;;;;19.20;100.00;101776.47;2011841;71;24171;-68
2022/08/25 08:40:21;;;;;;;155.93;144.20;;;;;;;19.24;100.00;101771.85;1931966;73;24111;-68
2022/08/25 08:43:01;;;;;;;148.77;137.60;;;;;;;19.14;100.00;101773.51;1961783;72;24117;-68
2022/08/25 08:45:34;;;;;;;148.33;136.97;;;;;;;19.23;100.00;101802.58;1967989;73;24554;-67
2022/08/25 08:48:36;;;;;;;150.67;139.23;;;;;;;19.22;100.00;101825.69;1967629;73;24137;-67
2022/08/25 08:51:14;;;;;;;145.10;133.60;;;;;;;19.41;100.00;101815.64;1935732;73;24145;-68
2022/08/25 08:53:48;;;;;;;138.87;127.97;;;;;;;19.24;100.00;101798.05;1976213;72;24156;-67
2022/08/25 08:59:21;;;;;;;139.70;128.87;;;;;;;19.47;100.00;101784.20;2060343;69;25970;-67
2022/08/25 09:01:57;;;;;;;141.40;130.27;;;;;;;19.41;100.00;101799.56;1981869;72;24172;-67
2022/08/25 09:04:31;;;;;;;139.47;128.73;;;;;;;19.32;100.00;101797.84;1946772;74;24616;-67
2022/08/25 09:07:05;;;;;;;142.27;131.20;;;;;;;19.33;100.00;101798.09;1946828;74;24575;-66
2022/08/25 09:09:38;;;;;;;153.53;142.37;;;;;;;19.35;100.00;101800.00;1946488;74;24152;-66
2022/08/25 09:12:12;;;;;;;151.77;140.50;;;;;;;19.39;100.00;101801.86;1981890;72;24315;-66
2022/08/25 09:14:54;;;;;;;151.10;140.10;;;;;;;19.46;100.00;101807.92;1946714;74;24114;-66
2022/08/25 09:17:31;;;;;;;151.53;140.43;;;;;;;19.46;100.00;101809.91;1923698;74;24159;-66
2022/08/25 09:20:26;;;;;;;140.47;129.60;;;;;;;19.45;100.00;101812.46;1971720;73;24681;-66
2022/08/25 09:23:01;;;;;;;141.00;130.63;;;;;;;19.42;100.00;101812.52;1972501;72;24148;-66
2022/08/25 09:25:37;;;;;;;144.90;134.23;;;;;;;19.29;100.00;101812.58;1981824;72;24132;-66
2022/08/25 09:28:10;;;;;;;150.13;139.27;;;;;;;19.54;100.00;101823.22;1980904;72;24178;-66
2022/08/25 09:30:46;;;;;;;136.40;126.10;;;;;;;19.51;100.00;101819.04;1981766;72;24186;-66
2022/08/25 09:36:34;;;;;;;130.97;121.17;;;;;;;19.52;100.00;101802.39;1994989;71;31443;-67
2022/08/25 09:42:03;;;;;;;136.90;127.57;;;;;;;19.61;100.00;101803.85;2048842;69;26005;-67
2022/08/25 09:44:36;;;;;;;138.20;128.57;;;;;;;19.80;100.00;101813.50;1967791;71;24171;-67
2022/08/25 09:47:11;;;;;;;146.53;136.80;;;;;;;19.53;100.00;101811.68;1997776;70;24777;-67
2022/08/25 09:49:43;;;;;;;160.00;149.67;;;;;;;19.60;100.00;101816.84;2002745;69;24161;-68
2022/08/25 09:52:32;;;;;;;149.30;139.07;;;;;;;19.50;100.00;101812.33;1933591;73;24588;-67
2022/08/25 09:55:22;;;;;;;160.03;149.53;;;;;;;19.59;100.00;101814.63;1927892;73;24150;-67
2022/08/25 10:01:13;;;;;;;148.13;138.40;;;;;;;19.63;100.00;101792.27;1954490;72;27080;-67
2022/08/25 10:04:05;;;;;;;143.10;133.50;;;;;;;19.67;100.00;101803.14;1923210;73;24163;-67
2022/08/25 10:06:39;;;;;;;146.47;136.40;;;;;;;19.63;100.00;101795.08;1940228;73;24210;-67
2022/08/25 10:09:13;;;;;;;127.10;118.27;;;;;;;19.72;100.00;101791.16;1944736;73;24619;-67
2022/08/25 10:11:51;;;;;;;144.13;134.63;;;;;;;19.69;100.00;101783.90;1911197;75;24284;-67
2022/08/25 10:14:28;;;;;;;161.97;151.77;;;;;;;19.67;100.00;101780.02;1910239;74;24239;-67
2022/08/25 10:17:23;;;;;;;152.27;142.30;;;;;;;19.64;100.00;101776.41;1905321;73;24156;-67
2022/08/25 10:19:49;;;;;;;143.13;133.63;;;;;;;19.79;100.00;101763.32;1936560;73;24234;-67
2022/08/25 10:22:30;;;;;;;147.07;137.17;;;;;;;19.77;100.00;101762.80;1950112;73;24693;-68
2022/08/25 10:24:57;;;;;;;151.47;141.27;;;;;;;19.92;100.00;101762.37;1905243;75;24293;-68
2022/08/25 10:27:32;;;;;;;154.03;143.67;;;;;;;19.94;100.00;101759.21;1887835;75;26876;-70
2022/08/25 10:30:19;;;;;;;161.53;150.50;;;;;;;19.98;100.00;101740.52;1901257;74;24157;-69
2022/08/25 10:32:58;;;;;;;156.07;145.70;;;;;;;20.02;100.00;101733.05;1890550;73;24370;-69
2022/08/25 10:35:31;;;;;;;137.20;127.43;;;;;;;20.09;100.00;101731.15;1896123;73;24173;-68
2022/08/25 10:38:09;;;;;;;139.07;129.80;;;;;;;19.97;100.00;101725.58;1851481;75;24175;-69
2022/08/25 10:40:43;;;;;;;144.67;134.83;;;;;;;20.09;100.00;101718.45;1851499;77;24169;-69
2022/08/25 10:43:18;;;;;;;137.53;127.80;;;;;;;20.13;100.00;101718.05;1859612;76;24137;-69
2022/08/25 10:45:51;;;;;;;136.27;126.70;;;;;;;20.28;100.00;101717.59;1942386;73;24152;-69
2022/08/25 10:48:34;;;;;;;130.63;121.60;;;;;;;20.15;100.00;101716.55;1943584;73;24148;-69
2022/08/25 10:54:13;;;;;;;114.07;105.73;;;;;;;20.36;100.00;101697.89;2060085;69;25923;-75
